Time;durP1;ratioP1;P1;durP2;ratioP2;P2;SDS_P1;SDS_P2;PMS_P1;PMS_P2;Temp;Humidity;BMP_temperature;BMP_pressure;BME280_temperature;BME280_humidity;BME280_pressure;Samples;Min_cycle;Max_cycle;Signal;HPM_P1;HPM_P2
2024/03/13 00:00:13;;;;;;;10.90;5.88;;;;;;;16.73;54.20;101048.06;4996398;28;20113;-62
2024/03/13 00:02:42;;;;;;;11.32;6.47;;;;;;;16.76;54.01;101054.00;4996482;28;20034;-62
2024/03/13 00:05:10;;;;;;;7.50;4.72;;;;;;;16.79;55.02;101050.97;4996240;28;20072;-62
2024/03/13 00:07:39;;;;;;;11.02;5.55;;;;;;;16.83;54.19;101048.78;4979975;28;20069;-62
2024/03/13 00:10:05;;;;;;;10.18;6.28;;;;;;;16.85;54.26;101044.91;4979893;28;20034;-62
2024/03/13 00:12:31;;;;;;;8.93;5.72;;;;;;;16.88;54.15;101047.28;5013566;28;20065;-62
2024/03/13 00:14:57;;;;;;;11.18;5.82;;;;;;;16.87;54.57;101042.03;4996266;28;20049;-62
2024/03/13 00:17:22;;;;;;;7.85;5.30;;;;;;;16.86;55.08;101038.47;4979763;28;20030;-62
2024/03/13 00:19:54;;;;;;;13.32;6.38;;;;;;;16.86;54.66;101040.34;5013547;28;20042;-63
2024/03/13 00:22:20;;;;;;;7.60;4.68;;;;;;;16.86;54.82;101043.06;4996459;28;20048;-63
2024/03/13 00:24:46;;;;;;;11.57;5.88;;;;;;;16.88;54.81;101047.28;5013494;28;20516;-62
2024/03/13 00:27:12;;;;;;;11.18;6.05;;;;;;;16.91;54.64;101047.97;5013332;28;20038;-62
2024/03/13 00:29:38;;;;;;;10.18;6.00;;;;;;;16.93;54.67;101051.34;4995836;28;20053;-62
2024/03/13 00:32:07;;;;;;;8.27;5.88;;;;;;;16.95;55.09;101047.47;5013320;28;20432;-62
2024/03/13 00:34:32;;;;;;;11.65;6.38;;;;;;;16.96;54.88;101048.31;4978935;28;20029;-63
2024/03/13 00:36:58;;;;;;;11.75;6.22;;;;;;;16.98;54.25;101046.28;4995382;28;20036;-63
2024/03/13 00:39:23;;;;;;;11.93;5.15;;;;;;;17.00;54.58;101044.28;4995547;28;20034;-62
2024/03/13 00:41:49;;;;;;;8.38;4.80;;;;;;;16.99;55.21;101045.28;5013411;28;20486;-62
2024/03/13 00:44:14;;;;;;;12.50;5.38;;;;;;;17.03;54.34;101046.66;4995503;28;20080;-63
2024/03/13 00:46:40;;;;;;;7.03;4.53;;;;;;;17.08;54.62;101049.69;4995504;28;20438;-63
2024/03/13 00:49:07;;;;;;;7.72;4.65;;;;;;;17.10;54.34;101062.06;4979360;28;20037;-62
2024/03/13 00:51:33;;;;;;;11.23;4.75;;;;;;;17.12;54.72;101049.19;4979253;28;20034;-62
2024/03/13 00:54:04;;;;;;;9.45;3.95;;;;;;;17.12;55.46;101048.34;5012999;28;20516;-62
2024/03/13 00:56:32;;;;;;;7.05;4.35;;;;;;;17.13;55.01;101050.03;4996027;28;20038;-62
2024/03/13 00:58:58;;;;;;;5.70;3.72;;;;;;;17.14;54.81;101051.75;5013049;28;20034;-62
2024/03/13 01:01:24;;;;;;;9.38;3.72;;;;;;;17.14;55.12;101051.75;4995509;28;20114;-62
2024/03/13 01:03:49;;;;;;;7.72;3.70;;;;;;;17.15;55.30;101054.28;4979127;28;20117;-62
2024/03/13 01:06:18;;;;;;;5.60;3.30;;;;;;;17.18;55.63;101061.22;4995262;28;20560;-62
2024/03/13 01:08:44;;;;;;;6.82;4.00;;;;;;;17.21;56.07;101060.88;4979183;28;20060;-62
2024/03/13 01:11:10;;;;;;;8.05;3.50;;;;;;;17.23;55.75;101057.00;4995370;28;20050;-62
2024/03/13 01:13:35;;;;;;;5.60;2.92;;;;;;;17.27;55.01;101063.78;4978976;28;20030;-62
2024/03/13 01:16:01;;;;;;;6.97;3.50;;;;;;;17.30;55.01;101065.31;4995369;28;20075;-62
2024/03/13 01:18:26;;;;;;;6.60;3.38;;;;;;;17.32;55.44;101064.13;4995396;28;20465;-62
2024/03/13 01:20:52;;;;;;;4.68;2.85;;;;;;;17.34;55.71;101061.25;5014009;28;20030;-63
2024/03/13 01:23:20;;;;;;;9.32;3.85;;;;;;;17.38;55.42;101065.31;4997626;28;20117;-62
2024/03/13 01:25:47;;;;;;;7.63;3.88;;;;;;;17.41;55.81;101068.56;5015568;28;20033;-62
2024/03/13 01:28:13;;;;;;;4.10;2.70;;;;;;;17.46;55.53;101065.31;5016732;28;20109;-62
2024/03/13 01:30:39;;;;;;;6.15;3.00;;;;;;;17.51;54.97;101065.66;4997048;28;20065;-62
2024/03/13 01:33:05;;;;;;;5.05;3.13;;;;;;;17.52;55.51;101067.38;4978926;28;20030;-62
2024/03/13 01:35:31;;;;;;;7.00;2.80;;;;;;;17.56;55.11;101068.75;4995359;28;20041;-62
2024/03/13 01:37:58;;;;;;;6.47;2.50;;;;;;;17.55;55.44;101058.09;4995266;28;20030;-62
2024/03/13 01:40:26;;;;;;;4.03;2.45;;;;;;;17.54;55.76;101065.38;4994966;28;20041;-62
2024/03/13 01:56:58;;;;;;;4.45;1.80;;;;;;;17.52;55.58;101066.53;4997948;28;20452;-62
2024/03/13 01:59:31;;;;;;;3.17;2.05;;;;;;;17.55;55.75;101064.34;4980273;28;20057;-62
2024/03/13 02:04:41;;;;;;;2.78;2.03;;;;;;;17.56;55.98;101062.50;5013789;28;20558;-62
2024/03/13 02:07:06;;;;;;;3.63;2.00;;;;;;;17.55;55.32;101072.47;4998315;28;20124;-62
2024/03/13 02:09:32;;;;;;;3.33;2.00;;;;;;;17.54;55.67;101065.38;4998453;28;20029;-62
2024/03/13 02:11:57;;;;;;;2.85;2.03;;;;;;;17.56;55.61;101063.31;4998387;28;20014;-62
2024/03/13 02:14:23;;;;;;;2.08;1.65;;;;;;;17.59;56.26;101067.59;4998272;28;20026;-62
2024/03/13 02:16:52;;;;;;;3.38;2.15;;;;;;;17.60;55.88;101067.41;4981911;28;20109;-62
2024/03/13 02:19:18;;;;;;;2.95;1.67;;;;;;;17.60;55.82;101064.69;4998419;28;20061;-62
2024/03/13 02:21:45;;;;;;;5.95;1.95;;;;;;;17.58;55.27;101061.31;4998315;28;20045;-62
2024/03/13 02:24:11;;;;;;;2.33;1.70;;;;;;;17.60;55.82;101058.41;5015570;28;20029;-62
2024/03/13 02:26:40;;;;;;;4.70;1.98;;;;;;;17.61;55.41;101066.41;4981745;28;20030;-62
2024/03/13 02:29:05;;;;;;;1.92;1.60;;;;;;;17.60;55.47;101058.41;4982049;28;20064;-62
2024/03/13 02:31:31;;;;;;;1.65;1.25;;;;;;;17.59;55.59;101065.69;4998122;28;20034;-62
2024/03/13 02:33:56;;;;;;;3.13;1.48;;;;;;;17.57;56.21;101065.03;4998575;28;20033;-62
2024/03/13 02:36:22;;;;;;;1.02;1.00;;;;;;;17.54;56.06;101064.50;5016076;28;21445;-62
2024/03/13 02:38:49;;;;;;;1.38;1.20;;;;;;;17.51;56.25;101060.25;4997996;28;20133;-62
2024/03/13 02:41:14;;;;;;;8.10;1.20;;;;;;;17.51;55.56;101062.94;4998200;28;20030;-62
2024/03/13 02:43:41;;;;;;;1.83;1.08;;;;;;;17.52;56.02;101070.06;4997712;28;20152;-62
2024/03/13 02:46:08;;;;;;;0.88;0.65;;;;;;;17.53;56.16;101069.06;4997679;28;20054;-62
2024/03/13 02:48:33;;;;;;;1.40;0.80;;;;;;;17.55;56.14;101072.47;4998053;28;20033;-62
2024/03/13 02:50:58;;;;;;;1.73;1.10;;;;;;;17.54;55.49;101069.94;4981623;28;20030;-62
2024/03/13 02:53:24;;;;;;;1.05;0.75;;;;;;;17.56;55.64;101067.91;4997618;28;20385;-62
2024/03/13 02:55:49;;;;;;;2.00;0.93;;;;;;;17.54;56.20;101070.78;4997514;28;20048;-62
2024/03/13 02:58:15;;;;;;;0.88;0.80;;;;;;;17.54;55.69;101067.22;4997430;28;20486;-62
2024/03/13 03:00:44;;;;;;;1.90;0.95;;;;;;;17.53;56.37;101073.63;4997276;28;20034;-62
2024/03/13 03:03:12;;;;;;;1.70;1.05;;;;;;;17.54;55.54;101070.78;4997772;28;20036;-62
2024/03/13 03:05:37;;;;;;;2.08;1.10;;;;;;;17.53;55.56;101074.50;4997588;28;20030;-62
2024/03/13 03:08:03;;;;;;;1.35;0.85;;;;;;;17.55;55.59;101077.06;4998954;28;20049;-62
2024/03/13 03:10:29;;;;;;;1.95;1.48;;;;;;;17.56;55.76;101074.16;4999765;28;20112;-62
2024/03/13 03:12:55;;;;;;;2.35;1.30;;;;;;;17.58;56.34;101083.00;5000775;28;20065;-62
2024/03/13 03:15:21;;;;;;;2.00;1.27;;;;;;;17.59;55.79;101079.25;5001235;28;20054;-62
2024/03/13 03:17:46;;;;;;;3.42;1.80;;;;;;;17.62;55.59;101078.06;5001670;28;20094;-63
2024/03/13 03:20:11;;;;;;;6.80;1.92;;;;;;;17.65;55.82;101078.56;4998491;28;20037;-62
2024/03/13 03:22:37;;;;;;;4.03;2.05;;;;;;;17.65;55.56;101083.13;4997144;28;20029;-62
2024/03/13 03:25:02;;;;;;;4.82;2.30;;;;;;;17.66;56.15;101079.44;4997026;28;20057;-62
2024/03/13 03:27:28;;;;;;;6.63;2.38;;;;;;;17.66;56.18;101084.84;4997076;28;20034;-62
2024/03/13 03:29:53;;;;;;;4.78;2.72;;;;;;;17.71;55.83;101087.88;5014342;28;20109;-62
2024/03/13 03:32:19;;;;;;;3.35;2.45;;;;;;;17.69;55.56;101085.38;5014542;28;20033;-62
2024/03/13 03:34:44;;;;;;;5.03;3.22;;;;;;;17.70;55.77;101084.31;4997013;28;20389;-62
2024/03/13 03:37:10;;;;;;;5.38;3.35;;;;;;;17.68;55.83;101093.66;4980577;28;20076;-62
2024/03/13 03:39:39;;;;;;;5.57;3.60;;;;;;;17.68;56.10;101091.78;4996961;28;20084;-63
2024/03/13 03:42:05;;;;;;;4.72;3.00;;;;;;;17.67;56.09;101092.78;4980771;28;20113;-62
2024/03/13 03:44:30;;;;;;;4.68;3.33;;;;;;;17.66;55.96;101099.25;5014179;28;20060;-62
2024/03/13 03:46:59;;;;;;;5.43;3.38;;;;;;;17.67;55.84;101094.69;4996418;28;20034;-62
2024/03/13 03:49:25;;;;;;;4.80;2.72;;;;;;;17.64;56.27;101098.56;4980273;28;20394;-62
2024/03/13 03:51:50;;;;;;;6.82;2.78;;;;;;;17.62;56.06;101094.31;5013940;28;20049;-62
2024/03/13 03:54:16;;;;;;;6.38;3.63;;;;;;;17.59;56.59;101106.34;5013983;28;20054;-62
2024/03/13 03:56:41;;;;;;;5.32;2.83;;;;;;;17.55;55.74;101105.00;5014025;28;20036;-62
2024/03/13 03:59:09;;;;;;;7.72;3.58;;;;;;;17.52;56.46;101105.28;4996473;28;20030;-62
2024/03/13 04:01:35;;;;;;;9.30;3.83;;;;;;;17.53;56.04;101111.56;4995965;28;20034;-62
2024/03/13 04:04:03;;;;;;;5.70;3.45;;;;;;;17.53;56.01;101111.56;4996259;28;20041;-62
2024/03/13 04:06:29;;;;;;;7.50;3.40;;;;;;;17.52;55.97;101099.88;4996537;28;20030;-63
2024/03/13 04:08:55;;;;;;;8.30;3.83;;;;;;;17.53;56.22;101106.16;4996271;28;20030;-63
2024/03/13 04:11:20;;;;;;;5.88;3.35;;;;;;;17.52;56.34;101115.28;5013943;28;20040;-62
2024/03/13 04:13:46;;;;;;;6.88;3.70;;;;;;;17.51;56.49;101114.41;4996472;28;20032;-63
2024/03/13 04:16:13;;;;;;;6.07;3.15;;;;;;;17.52;56.06;101110.72;4996146;28;20037;-62
2024/03/13 04:18:39;;;;;;;6.85;3.30;;;;;;;17.53;55.98;101109.72;4996411;28;20109;-62
2024/03/13 04:21:04;;;;;;;6.45;3.60;;;;;;;17.51;56.24;101098.16;4996266;28;20462;-62
2024/03/13 04:23:33;;;;;;;6.45;3.45;;;;;;;17.51;56.90;101109.00;4996009;28;20497;-62
2024/03/13 04:26:02;;;;;;;4.25;2.72;;;;;;;17.52;56.62;101115.28;5013493;28;20095;-62
2024/03/13 04:28:28;;;;;;;5.68;2.80;;;;;;;17.54;56.82;101114.13;4979666;28;20406;-63
2024/03/13 04:30:53;;;;;;;6.15;3.05;;;;;;;17.57;56.15;101111.09;4979767;28;20498;-62
2024/03/13 04:33:19;;;;;;;8.57;4.03;;;;;;;17.60;56.63;101118.88;4995770;28;20402;-62
2024/03/13 04:35:45;;;;;;;5.72;3.47;;;;;;;17.60;55.33;101116.16;4995950;28;20501;-62
2024/03/13 04:38:10;;;;;;;5.72;2.67;;;;;;;17.62;55.67;101121.41;4979639;28;20045;-62
2024/03/13 04:40:38;;;;;;;8.45;3.13;;;;;;;17.64;55.61;101125.66;5013347;28;20041;-62
2024/03/13 04:43:04;;;;;;;5.22;2.72;;;;;;;17.63;56.23;101118.53;4996004;28;20041;-62
2024/03/13 04:45:29;;;;;;;6.70;2.75;;;;;;;17.62;55.64;101121.41;4979436;28;20084;-62
2024/03/13 04:47:54;;;;;;;6.38;3.17;;;;;;;17.66;55.84;101129.06;4995554;28;20034;-62
2024/03/13 04:50:20;;;;;;;3.92;2.80;;;;;;;17.67;56.01;101135.31;5013124;28;20044;-62
2024/03/13 04:52:45;;;;;;;9.18;3.70;;;;;;;17.65;56.52;101132.75;4979329;28;20083;-62
2024/03/13 04:55:10;;;;;;;5.30;3.05;;;;;;;17.66;56.12;101134.47;4995665;28;20449;-62
2024/03/13 04:57:36;;;;;;;7.15;2.95;;;;;;;17.64;55.58;101130.22;5013117;28;20046;-62
2024/03/13 05:00:01;;;;;;;11.70;3.40;;;;;;;17.63;55.95;101133.94;4995636;28;20457;-62
2024/03/13 05:02:27;;;;;;;7.65;4.25;;;;;;;17.65;55.74;101143.59;4995561;28;20046;-62
2024/03/13 05:04:53;;;;;;;6.47;3.45;;;;;;;17.63;55.74;101134.81;4995494;28;20065;-62
2024/03/13 05:07:18;;;;;;;7.40;3.63;;;;;;;17.61;56.01;101139.56;4979392;28;20038;-62
2024/03/13 05:09:44;;;;;;;7.13;3.35;;;;;;;17.62;55.49;101138.50;4979184;28;20030;-62
2024/03/13 05:12:12;;;;;;;9.57;3.72;;;;;;;17.61;55.59;101147.69;4995574;28;20092;-63
2024/03/13 05:14:37;;;;;;;6.25;2.75;;;;;;;17.63;55.69;101151.06;5013001;28;20034;-62
2024/03/13 05:17:04;;;;;;;7.35;3.00;;;;;;;17.65;55.65;101154.44;5012841;28;20084;-62
2024/03/13 05:19:29;;;;;;;4.95;3.47;;;;;;;17.64;55.65;101155.47;4995705;28;20401;-62
2024/03/13 05:21:57;;;;;;;7.65;2.85;;;;;;;17.65;55.85;101146.31;5012926;28;20038;-62
2024/03/13 05:24:23;;;;;;;8.95;3.25;;;;;;;17.68;56.10;101155.97;5013005;28;20046;-62
2024/03/13 05:26:50;;;;;;;10.75;3.85;;;;;;;17.71;56.31;101159.19;4996975;28;20113;-62
2024/03/13 05:29:15;;;;;;;11.80;3.65;;;;;;;17.71;55.55;101159.19;4995302;28;20112;-62
2024/03/13 05:31:40;;;;;;;5.57;2.60;;;;;;;17.70;55.92;101156.66;4995296;28;20125;-62
2024/03/13 05:34:07;;;;;;;6.65;3.13;;;;;;;17.72;55.53;101160.91;5013126;28;20033;-62
2024/03/13 05:36:32;;;;;;;6.13;3.33;;;;;;;17.72;55.76;101160.03;5012887;28;20109;-62
2024/03/13 05:38:58;;;;;;;4.65;3.13;;;;;;;17.74;55.32;101156.16;4996161;28;20148;-62
2024/03/13 05:41:24;;;;;;;8.95;3.95;;;;;;;17.74;56.05;101167.00;5016293;28;20042;-62
2024/03/13 05:43:50;;;;;;;7.07;3.30;;;;;;;17.75;55.28;101166.00;4982651;28;20068;-62
2024/03/13 05:46:16;;;;;;;8.25;4.38;;;;;;;17.74;55.64;101169.69;4999263;28;20525;-62
2024/03/13 05:48:41;;;;;;;6.75;3.30;;;;;;;17.73;55.33;101159.88;4982628;28;20026;-62
2024/03/13 05:51:06;;;;;;;5.88;3.55;;;;;;;17.75;55.41;101167.84;4982686;28;20030;-62
2024/03/13 05:53:32;;;;;;;6.53;3.05;;;;;;;17.73;55.30;101168.00;4983893;28;20167;-67
2024/03/13 05:55:59;;;;;;;19.52;4.00;;;;;;;17.74;55.60;101175.13;5019586;28;20038;-62
2024/03/13 05:58:25;;;;;;;7.53;3.03;;;;;;;17.72;55.11;101171.75;5002258;28;20030;-62
2024/03/13 06:00:52;;;;;;;7.25;2.97;;;;;;;17.71;55.50;101175.44;4983722;28;20457;-62
2024/03/13 06:03:18;;;;;;;5.70;3.42;;;;;;;17.71;55.00;101174.59;4999272;28;20034;-62
2024/03/13 06:05:45;;;;;;;6.57;2.75;;;;;;;17.71;55.51;101180.00;4998725;28;20034;-62
2024/03/13 06:08:12;;;;;;;9.65;2.85;;;;;;;17.72;55.16;101176.31;4982565;28;20045;-62
2024/03/13 06:10:37;;;;;;;7.20;3.53;;;;;;;17.74;55.33;101191.38;4998655;28;20494;-62
2024/03/13 06:13:03;;;;;;;11.20;3.92;;;;;;;17.74;55.23;101183.25;4998542;28;20037;-62
2024/03/13 06:15:29;;;;;;;5.60;3.17;;;;;;;17.78;55.70;101192.72;4998456;28;20510;-62
2024/03/13 06:17:55;;;;;;;9.63;3.35;;;;;;;17.79;55.78;101189.00;4982259;28;20431;-62
2024/03/13 06:20:20;;;;;;;6.97;2.83;;;;;;;17.80;55.25;101192.56;4998660;28;20026;-62
2024/03/13 06:22:46;;;;;;;11.15;3.60;;;;;;;17.81;54.78;101186.97;4998569;28;20505;-63
2024/03/13 06:25:13;;;;;;;9.07;3.33;;;;;;;17.82;55.27;101185.97;4999726;28;20041;-63
2024/03/13 06:27:38;;;;;;;7.80;2.70;;;;;;;17.84;55.28;101186.63;4999679;28;20046;-63
2024/03/13 06:30:05;;;;;;;6.20;3.25;;;;;;;17.83;55.50;101193.09;5001402;28;20160;-63
2024/03/13 06:32:30;;;;;;;6.13;2.90;;;;;;;17.83;55.64;101189.53;5000359;28;20501;-64
2024/03/13 06:35:00;;;;;;;6.72;3.20;;;;;;;17.83;55.63;101197.66;5000517;28;20038;-63
2024/03/13 06:37:25;;;;;;;9.85;3.53;;;;;;;17.81;55.51;101189.69;4998549;28;20030;-62
2024/03/13 06:39:52;;;;;;;6.40;3.15;;;;;;;17.78;55.24;101192.72;5015477;28;20532;-62
2024/03/13 06:42:17;;;;;;;9.25;2.58;;;;;;;17.79;55.40;101189.00;4998144;28;20030;-63
2024/03/13 06:44:43;;;;;;;8.18;3.63;;;;;;;17.83;55.15;101195.81;5015337;28;20378;-64
2024/03/13 06:47:11;;;;;;;7.75;3.22;;;;;;;17.85;55.18;101196.47;4997823;28;20042;-64
2024/03/13 06:49:44;;;;;;;6.25;3.13;;;;;;;17.88;55.55;101190.72;4998050;28;20038;-63
2024/03/13 06:52:12;;;;;;;8.25;3.63;;;;;;;17.90;55.56;101199.53;5015430;28;20033;-62
2024/03/13 06:54:41;;;;;;;8.88;3.30;;;;;;;17.93;55.32;101212.75;4994387;28;20078;-64
2024/03/13 06:57:09;;;;;;;6.57;2.28;;;;;;;17.95;55.07;101207.19;4977778;28;20154;-63
2024/03/13 06:59:35;;;;;;;7.53;2.22;;;;;;;17.97;55.34;101202.44;4995886;28;20104;-62
2024/03/13 07:02:01;;;;;;;10.30;3.42;;;;;;;17.98;54.81;101198.69;4995764;28;20054;-63
2024/03/13 07:04:26;;;;;;;5.88;2.60;;;;;;;17.99;54.93;101206.66;4994249;28;20026;-62
2024/03/13 07:06:58;;;;;;;10.68;3.10;;;;;;;18.01;54.96;101203.78;4994076;28;20088;-63
2024/03/13 07:09:32;;;;;;;9.38;2.42;;;;;;;18.04;55.62;101208.84;4994167;28;20506;-63
2024/03/13 07:11:57;;;;;;;7.35;1.83;;;;;;;18.06;54.84;101212.28;4993901;28;20034;-63
2024/03/13 07:14:24;;;;;;;10.30;2.92;;;;;;;18.05;55.41;101213.28;4993999;28;20034;-62
2024/03/13 07:16:49;;;;;;;7.13;3.47;;;;;;;18.07;54.93;101218.50;4995134;28;20031;-62
2024/03/13 07:19:15;;;;;;;5.57;2.38;;;;;;;18.12;54.84;101218.88;4993962;28;20038;-63
2024/03/13 07:21:40;;;;;;;5.13;2.38;;;;;;;18.13;55.26;101229.53;4994055;28;20489;-62
2024/03/13 07:24:06;;;;;;;10.95;2.65;;;;;;;18.16;54.94;101222.94;4995029;28;20058;-63
2024/03/13 07:26:32;;;;;;;6.03;1.70;;;;;;;18.17;55.06;101227.34;4993790;28;20035;-63
2024/03/13 07:28:57;;;;;;;8.38;2.33;;;;;;;18.19;54.51;101234.31;4977535;28;20065;-62
2024/03/13 07:31:23;;;;;;;5.07;2.30;;;;;;;18.20;55.20;101235.16;4994817;28;20388;-62
2024/03/13 07:33:50;;;;;;;8.00;2.03;;;;;;;18.23;54.79;101234.81;4993469;28;20038;-62
2024/03/13 07:36:16;;;;;;;7.25;1.65;;;;;;;18.27;54.76;101236.16;4993506;28;20033;-62
2024/03/13 07:38:41;;;;;;;5.22;2.65;;;;;;;18.29;54.42;101239.53;4993651;28;20030;-62
2024/03/13 07:41:11;;;;;;;4.85;1.73;;;;;;;18.29;54.87;101240.41;4993447;28;20046;-62
2024/03/13 07:43:36;;;;;;;4.28;1.95;;;;;;;18.25;54.29;101238.19;4993618;28;20033;-62
2024/03/13 07:46:01;;;;;;;2.80;1.52;;;;;;;18.30;55.03;101235.81;4993320;28;20034;-62
2024/03/13 07:48:27;;;;;;;4.88;1.75;;;;;;;18.36;55.83;101244.16;4994614;28;20034;-63
2024/03/13 07:50:52;;;;;;;5.80;1.83;;;;;;;18.38;54.42;101249.38;4977165;28;20041;-62
2024/03/13 07:53:21;;;;;;;2.65;1.80;;;;;;;18.42;54.51;101245.34;4993385;28;20034;-62
2024/03/13 07:55:49;;;;;;;4.35;1.80;;;;;;;18.44;54.56;101246.84;4993185;28;20455;-62
2024/03/13 07:58:15;;;;;;;9.93;1.70;;;;;;;18.49;54.58;101247.22;4993048;28;20046;-62
2024/03/13 08:00:40;;;;;;;2.50;1.50;;;;;;;18.52;54.52;101246.03;4994319;28;20034;-62
2024/03/13 08:03:05;;;;;;;6.68;2.00;;;;;;;18.57;54.18;101251.78;4976203;28;20533;-62
2024/03/13 08:05:32;;;;;;;3.22;1.52;;;;;;;18.59;54.61;101244.34;4993098;28;20038;-62
2024/03/13 08:07:57;;;;;;;4.47;1.67;;;;;;;18.61;53.74;101245.00;4992751;28;20506;-62
2024/03/13 08:10:25;;;;;;;6.97;2.13;;;;;;;18.66;54.41;101242.63;4992983;28;20045;-62
2024/03/13 08:12:54;;;;;;;4.70;1.35;;;;;;;18.72;54.62;101251.94;4992706;28;20523;-62
2024/03/13 08:15:20;;;;;;;2.95;1.50;;;;;;;18.77;54.16;101255.00;4994042;28;20117;-62
2024/03/13 08:17:45;;;;;;;3.63;1.80;;;;;;;18.80;54.35;101255.50;4976593;28;20149;-62
2024/03/13 08:20:12;;;;;;;6.75;1.83;;;;;;;18.84;54.38;101264.16;4992896;28;20414;-63
2024/03/13 08:22:44;;;;;;;7.50;1.45;;;;;;;18.85;53.82;101261.25;4992769;28;20031;-62
2024/03/13 08:25:16;;;;;;;3.63;1.45;;;;;;;18.89;54.46;101265.34;4993109;28;20034;-62
2024/03/13 08:27:42;;;;;;;4.47;1.90;;;;;;;18.87;53.83;101264.63;4992634;28;20411;-62
2024/03/13 08:30:07;;;;;;;3.72;1.77;;;;;;;18.88;53.98;101274.50;4992610;28;20058;-62
2024/03/13 08:32:32;;;;;;;4.75;1.83;;;;;;;18.90;53.94;101266.19;4993846;28;20043;-62
2024/03/13 08:34:58;;;;;;;4.45;2.00;;;;;;;18.94;54.01;101276.53;4992540;28;20062;-62
2024/03/13 08:37:26;;;;;;;3.75;2.60;;;;;;;18.91;54.30;101274.16;4993870;28;20027;-62
2024/03/13 08:39:52;;;;;;;4.07;1.80;;;;;;;18.91;53.93;101285.00;4993858;28;20494;-62
2024/03/13 08:42:17;;;;;;;2.63;1.70;;;;;;;18.93;54.66;101284.81;4992485;28;20150;-62
2024/03/13 08:44:43;;;;;;;4.40;2.38;;;;;;;18.93;54.29;101284.81;4992232;28;20031;-62
2024/03/13 08:47:08;;;;;;;7.22;2.35;;;;;;;18.91;54.73;101290.44;4992229;28;20544;-62
2024/03/13 08:49:33;;;;;;;5.88;2.65;;;;;;;18.90;54.29;101287.91;4993724;28;20121;-62
2024/03/13 08:51:59;;;;;;;3.50;2.25;;;;;;;18.93;54.09;101288.38;4993576;28;20042;-67
2024/03/13 08:54:24;;;;;;;5.38;2.22;;;;;;;18.94;53.98;101295.53;4991928;28;20061;-67
2024/03/13 08:56:49;;;;;;;6.28;2.58;;;;;;;18.99;53.76;101298.56;4992350;28;20026;-67
2024/03/13 08:59:15;;;;;;;4.35;1.85;;;;;;;19.00;53.86;101300.28;4992339;28;20097;-67
2024/03/13 09:01:44;;;;;;;6.47;2.30;;;;;;;19.02;53.98;101303.66;4993481;28;20514;-67
2024/03/13 09:04:10;;;;;;;5.07;2.08;;;;;;;19.03;54.57;101304.50;4993470;28;20093;-67
2024/03/13 09:06:36;;;;;;;7.55;2.05;;;;;;;19.10;54.38;101308.22;4993281;28;20038;-67
2024/03/13 09:09:06;;;;;;;5.30;2.20;;;;;;;19.12;54.06;101309.75;4975900;28;20041;-67
2024/03/13 09:11:31;;;;;;;3.10;2.28;;;;;;;19.16;53.67;101305.66;4992114;28;20446;-67
2024/03/13 09:14:03;;;;;;;4.20;1.65;;;;;;;19.19;54.13;101308.03;4993017;28;20030;-67
2024/03/13 09:16:29;;;;;;;5.43;2.15;;;;;;;19.24;53.78;101309.38;4996227;28;20413;-67
2024/03/13 09:18:55;;;;;;;2.97;1.88;;;;;;;19.24;54.42;101306.66;4996154;28;20375;-67
2024/03/13 09:21:20;;;;;;;4.75;2.03;;;;;;;19.22;54.03;101319.56;4996012;28;20026;-67
2024/03/13 09:23:46;;;;;;;4.97;1.42;;;;;;;19.21;53.75;101310.56;4995979;28;20069;-67
2024/03/13 09:26:12;;;;;;;2.85;1.52;;;;;;;19.23;53.98;101318.56;4995952;28;20034;-67
2024/03/13 09:28:37;;;;;;;4.28;1.85;;;;;;;19.24;53.92;101315.66;4996027;28;20034;-67
2024/03/13 09:31:03;;;;;;;5.68;1.60;;;;;;;19.24;53.76;101317.53;4996056;28;20125;-67
2024/03/13 09:33:29;;;;;;;3.05;1.90;;;;;;;19.23;53.80;101322.13;4996590;28;20042;-67
2024/03/13 09:35:54;;;;;;;5.97;1.95;;;;;;;19.27;53.82;101317.19;4996523;28;20030;-67
2024/03/13 09:38:21;;;;;;;5.60;2.10;;;;;;;19.29;53.90;101320.59;4980187;28;20031;-67
2024/03/13 09:40:48;;;;;;;4.40;1.83;;;;;;;19.34;54.42;101324.47;4997013;28;20113;-67
2024/03/13 09:43:14;;;;;;;4.70;1.88;;;;;;;19.34;53.59;101324.47;4981129;28;20088;-67
2024/03/13 09:45:40;;;;;;;3.08;1.73;;;;;;;19.34;53.70;101318.19;5000254;28;20038;-67
2024/03/13 09:48:06;;;;;;;3.05;1.38;;;;;;;19.37;53.75;101312.41;4982978;28;20093;-67
2024/03/13 09:50:31;;;;;;;2.03;1.33;;;;;;;19.44;54.01;101308.00;4997551;28;20057;-67
2024/03/13 09:52:57;;;;;;;2.60;1.63;;;;;;;19.56;54.02;101312.03;4979311;28;20035;-67
2024/03/13 09:55:24;;;;;;;3.70;1.88;;;;;;;19.65;53.45;101311.81;4995335;28;20478;-67
2024/03/13 09:57:51;;;;;;;2.78;1.38;;;;;;;19.86;52.90;101311.22;4995555;28;20494;-67
2024/03/13 10:00:18;;;;;;;4.38;1.40;;;;;;;19.98;52.93;101317.97;4995342;28;20046;-67
2024/03/13 10:02:47;;;;;;;1.83;1.05;;;;;;;20.00;53.17;101305.03;4995483;28;20043;-62
2024/03/13 10:05:12;;;;;;;1.52;1.30;;;;;;;20.02;53.64;101311.13;4995310;28;20030;-63
2024/03/13 10:07:38;;;;;;;3.38;1.50;;;;;;;20.00;53.69;101315.06;4996483;28;20045;-62
2024/03/13 10:10:18;;;;;;;2.45;1.73;;;;;;;19.94;53.36;101308.47;4994944;28;20038;-62
2024/03/13 10:12:44;;;;;;;2.25;1.20;;;;;;;19.92;53.68;101306.94;4996357;28;20027;-62
2024/03/13 10:15:10;;;;;;;3.47;1.30;;;;;;;19.91;53.29;101310.69;4996847;28;20042;-62
2024/03/13 10:17:36;;;;;;;3.22;1.42;;;;;;;19.87;53.30;101312.94;4979004;28;20113;-62
2024/03/13 10:20:08;;;;;;;2.17;1.15;;;;;;;19.84;52.69;101321.44;4995329;28;20038;-63
2024/03/13 10:22:34;;;;;;;1.70;1.30;;;;;;;19.79;53.08;101317.56;4996115;28;20096;-63
2024/03/13 10:25:00;;;;;;;3.40;1.63;;;;;;;19.77;53.09;101331.31;4995563;28;20057;-62
2024/03/13 10:27:26;;;;;;;4.78;1.98;;;;;;;19.73;53.52;101335.44;4995524;28;20029;-62
2024/03/13 10:29:53;;;;;;;5.35;1.92;;;;;;;19.69;53.46;101329.47;4978713;28;20023;-62
2024/03/13 10:32:19;;;;;;;2.30;1.38;;;;;;;19.68;53.06;101332.38;4994921;28;20029;-62
2024/03/13 10:34:45;;;;;;;2.55;1.63;;;;;;;19.66;53.63;101328.97;4995912;28;20026;-62
2024/03/13 10:37:14;;;;;;;5.78;1.95;;;;;;;19.69;53.47;101328.63;4978521;28;20508;-62
2024/03/13 10:39:42;;;;;;;5.57;1.88;;;;;;;19.81;52.68;101338.09;4978983;28;20022;-62
2024/03/13 10:42:08;;;;;;;2.97;1.15;;;;;;;19.91;52.68;101341.44;4995957;28;20057;-63
2024/03/13 10:44:34;;;;;;;3.95;1.38;;;;;;;19.90;52.81;101339.78;4994929;28;20121;-62
2024/03/13 10:47:00;;;;;;;6.35;2.17;;;;;;;19.92;52.49;101340.44;4994568;28;20642;-62
2024/03/13 10:49:27;;;;;;;1.35;1.10;;;;;;;19.92;52.87;101335.00;4978530;28;20125;-62
2024/03/13 10:52:01;;;;;;;3.17;1.33;;;;;;;19.93;52.60;101339.41;4978451;28;20051;-62
2024/03/13 10:54:27;;;;;;;2.05;1.50;;;;;;;19.99;52.12;101335.97;4994493;28;20038;-62
2024/03/13 10:56:52;;;;;;;2.97;1.17;;;;;;;20.03;52.67;101342.75;4995786;28;20474;-62
2024/03/13 10:59:23;;;;;;;3.47;1.60;;;;;;;20.07;52.36;101343.25;4995580;28;20445;-62
2024/03/13 11:01:52;;;;;;;2.15;0.98;;;;;;;20.06;52.00;101326.09;4995504;28;20077;-62
2024/03/13 11:04:17;;;;;;;2.05;0.90;;;;;;;20.10;52.08;101327.41;4994182;28;20035;-62
2024/03/13 11:06:43;;;;;;;1.83;1.23;;;;;;;20.08;52.17;101334.91;4994335;28;20125;-62
2024/03/13 11:09:20;;;;;;;1.98;0.88;;;;;;;20.11;52.01;101340.00;4994175;28;20121;-61
2024/03/13 11:11:51;;;;;;;3.90;1.20;;;;;;;20.14;51.51;101344.22;4979384;28;20045;-62
2024/03/13 11:14:20;;;;;;;3.42;1.52;;;;;;;20.20;52.38;101349.81;4994001;28;20041;-62
2024/03/13 11:16:50;;;;;;;2.88;1.80;;;;;;;20.21;51.70;101332.44;4977904;28;20504;-62
2024/03/13 11:19:17;;;;;;;3.92;1.30;;;;;;;20.23;52.01;101332.28;4994227;28;20058;-62
2024/03/13 11:21:55;;;;;;;6.57;2.65;;;;;;;20.22;52.50;101336.88;4994221;28;20120;-62
2024/03/13 11:24:25;;;;;;;3.85;2.15;;;;;;;20.25;51.72;101331.09;4977758;28;20034;-62
2024/03/13 11:26:51;;;;;;;4.45;1.80;;;;;;;20.25;51.57;101335.69;4993770;28;20034;-62
2024/03/13 11:29:20;;;;;;;4.88;2.08;;;;;;;20.21;51.39;101334.34;4995081;28;20169;-62
2024/03/13 11:31:49;;;;;;;4.03;2.33;;;;;;;20.17;51.97;101344.72;4977531;28;20117;-62
2024/03/13 11:34:14;;;;;;;3.63;1.73;;;;;;;20.18;52.18;101332.78;4993661;28;20101;-62
2024/03/13 11:36:42;;;;;;;3.70;1.98;;;;;;;20.21;52.11;101329.72;4992784;28;20473;-62